Time;durP1;ratioP1;P1;durP2;ratioP2;P2;SDS_P1;SDS_P2;PMS_P1;PMS_P2;Temp;Humidity;BMP_temperature;BMP_pressure;BME280_temperature;BME280_humidity;BME280_pressure;Samples;Min_cycle;Max_cycle;Signal;HPM_P1;HPM_P2
2021/10/29 00:02:05;;;;;;;76.75;39.40;;;;;;;8.67;68.55;99818.94;10386449;28;20056;-68
2021/10/29 00:07:08;;;;;;;96.60;44.13;;;;;;;8.85;68.26;99820.59;10387303;28;20081;-68
2021/10/29 00:12:12;;;;;;;98.43;45.72;;;;;;;8.78;68.13;99814.84;10388723;28;20049;-68
2021/10/29 00:17:14;;;;;;;132.02;49.60;;;;;;;8.63;68.44;99822.66;10385926;28;20320;-67
2021/10/29 00:22:16;;;;;;;111.32;47.15;;;;;;;8.65;68.59;99819.03;10385782;28;20091;-67
2021/10/29 00:27:18;;;;;;;125.78;48.63;;;;;;;8.52;68.57;99817.19;10386347;28;20052;-67
2021/10/29 00:32:19;;;;;;;111.57;47.42;;;;;;;8.52;68.92;99815.41;10385593;28;20045;-67
2021/10/29 00:37:21;;;;;;;144.60;50.92;;;;;;;8.43;68.86;99813.28;10385657;28;20053;-67
2021/10/29 00:42:24;;;;;;;119.20;47.63;;;;;;;8.28;69.37;99808.06;10386862;28;20072;-66
2021/10/29 00:47:29;;;;;;;127.95;50.50;;;;;;;8.38;69.36;99804.03;10382422;28;20425;-67
2021/10/29 00:52:31;;;;;;;133.85;48.92;;;;;;;8.53;68.93;99805.81;10383301;28;20235;-67
2021/10/29 00:57:34;;;;;;;138.00;52.13;;;;;;;8.43;69.19;99802.88;10383387;28;20379;-67
2021/10/29 01:02:36;;;;;;;119.82;49.53;;;;;;;8.43;69.19;99797.66;10384373;28;20060;-67
2021/10/29 01:07:38;;;;;;;174.10;49.42;;;;;;;8.39;69.15;99797.88;10382413;28;20092;-67
2021/10/29 01:12:39;;;;;;;340.55;66.38;;;;;;;8.37;69.23;99797.97;10350764;28;20536;-67
2021/10/29 01:17:41;;;;;;;338.48;57.63;;;;;;;8.12;69.81;99802.78;10374721;28;20057;-66
2021/10/29 01:22:43;;;;;;;210.57;51.67;;;;;;;7.93;70.20;99786.41;10384097;28;20056;-66
2021/10/29 01:27:45;;;;;;;123.85;47.78;;;;;;;8.02;70.27;99785.91;10381402;28;20205;-66
2021/10/29 01:32:47;;;;;;;112.80;47.38;;;;;;;8.16;69.95;99778.25;10384342;28;20132;-67
2021/10/29 01:37:49;;;;;;;150.05;49.97;;;;;;;8.34;69.55;99773.84;10382495;28;20041;-66
2021/10/29 01:42:51;;;;;;;125.35;47.45;;;;;;;8.29;69.59;99761.06;10381450;28;20060;-66
2021/10/29 01:47:53;;;;;;;126.05;46.00;;;;;;;8.26;69.83;99760.38;10382934;28;20494;-66
2021/10/29 01:52:54;;;;;;;269.15;51.08;;;;;;;8.31;69.67;99756.59;10383204;28;20060;-67
2021/10/29 01:57:56;;;;;;;311.92;53.38;;;;;;;8.22;69.62;99757.09;10381817;28;20051;-66
2021/10/29 02:02:58;;;;;;;256.40;46.92;;;;;;;8.23;69.73;99747.50;10386752;28;20524;-67
2021/10/29 02:08:00;;;;;;;250.05;46.67;;;;;;;8.33;69.58;99735.69;10391425;28;20528;-66
2021/10/29 02:13:02;;;;;;;303.42;49.75;;;;;;;8.32;69.30;99741.81;10374654;28;20153;-66
2021/10/29 02:18:04;;;;;;;188.98;44.65;;;;;;;8.25;69.28;99740.47;10387907;28;20426;-66
2021/10/29 02:23:05;;;;;;;169.77;43.78;;;;;;;8.22;69.45;99735.44;10390289;28;20053;-66
2021/10/29 02:28:07;;;;;;;212.95;47.13;;;;;;;8.25;69.45;99735.25;10390989;28;20170;-66
2021/10/29 02:33:09;;;;;;;414.83;49.85;;;;;;;8.13;69.11;99725.47;10391326;28;20490;-66
2021/10/29 02:38:11;;;;;;;208.63;46.85;;;;;;;8.00;69.71;99720.03;10390420;28;20075;-66
2021/10/29 02:43:13;;;;;;;242.07;44.75;;;;;;;8.02;69.49;99710.38;10391459;28;20051;-66
2021/10/29 02:48:15;;;;;;;165.02;45.58;;;;;;;8.08;69.57;99712.66;10392564;28;20073;-67
2021/10/29 02:53:17;;;;;;;243.95;50.60;;;;;;;8.19;69.44;99714.72;10398693;28;20176;-65
2021/10/29 02:58:19;;;;;;;208.90;48.03;;;;;;;8.28;69.31;99712.47;10399094;28;20482;-65
2021/10/29 03:03:21;;;;;;;201.35;50.03;;;;;;;8.26;69.22;99716.91;10395528;28;20056;-66
2021/10/29 03:08:23;;;;;;;240.15;53.25;;;;;;;8.07;69.36;99720.56;10392051;28;20053;-65
2021/10/29 03:13:25;;;;;;;154.45;47.40;;;;;;;7.85;69.84;99719.06;10389312;28;20136;-66
2021/10/29 03:18:26;;;;;;;163.23;50.15;;;;;;;8.01;69.72;99711.31;10390320;28;20050;-65
2021/10/29 03:23:31;;;;;;;356.13;65.75;;;;;;;8.13;69.37;99707.25;10390389;28;20057;-65
2021/10/29 03:28:34;;;;;;;164.10;51.92;;;;;;;8.07;69.32;99700.56;10389002;28;20045;-65
2021/10/29 03:33:38;;;;;;;105.20;46.08;;;;;;;8.01;69.72;99696.53;10389203;28;20294;-65
2021/10/29 03:44:46;;;;;;;129.30;48.72;;;;;;;8.04;69.80;99680.75;10389476;28;20245;-65
2021/10/29 03:49:21;;;;;;;102.97;43.65;;;;;;;8.08;69.54;99678.81;10388995;28;20071;-65
2021/10/29 03:54:30;;;;;;;183.52;45.45;;;;;;;8.01;69.33;99680.91;10390189;28;20053;-65
2021/10/29 03:59:31;;;;;;;235.43;48.50;;;;;;;7.83;69.75;99668.84;10389459;28;20072;-65
2021/10/29 04:04:33;;;;;;;329.52;54.10;;;;;;;7.81;69.93;99678.50;10389134;28;20053;-65
2021/10/29 04:09:35;;;;;;;316.70;48.28;;;;;;;7.65;69.87;99685.44;10388224;28;20327;-65
2021/10/29 04:14:37;;;;;;;743.95;75.75;;;;;;;7.49;70.03;99676.72;10386742;28;20116;-65
2021/10/29 04:19:38;;;;;;;540.58;60.63;;;;;;;7.26;70.59;99669.25;10388967;28;20054;-65
2021/10/29 04:24:40;;;;;;;577.10;71.25;;;;;;;7.13;70.78;99662.97;10387830;28;20518;-65
2021/10/29 04:29:42;;;;;;;408.17;52.05;;;;;;;7.16;70.99;99657.66;10387781;28;20691;-66
2021/10/29 04:34:43;;;;;;;475.17;62.90;;;;;;;7.08;71.31;99659.78;10386804;28;20045;-66
2021/10/29 04:39:46;;;;;;;364.67;52.35;;;;;;;7.20;71.22;99660.00;10387218;28;20050;-66
2021/10/29 04:44:48;;;;;;;224.23;51.15;;;;;;;7.31;70.98;99661.22;10387239;28;20045;-66
2021/10/29 04:49:50;;;;;;;177.40;46.20;;;;;;;7.26;71.09;99651.06;10387588;28;20049;-66
2021/10/29 04:54:51;;;;;;;257.38;48.78;;;;;;;7.19;70.84;99653.13;10386600;28;20077;-66
2021/10/29 04:59:53;;;;;;;116.55;44.40;;;;;;;7.08;70.95;99660.59;10387168;28;20054;-66
2021/10/29 05:04:55;;;;;;;441.90;66.07;;;;;;;7.00;71.31;99652.34;10387339;28;20660;-66
2021/10/29 05:09:57;;;;;;;443.55;58.97;;;;;;;6.83;71.56;99652.34;10386266;28;20569;-65
2021/10/29 05:14:59;;;;;;;297.80;49.10;;;;;;;6.80;71.67;99646.44;10385768;28;20049;-66
2021/10/29 05:20:00;;;;;;;133.55;43.15;;;;;;;6.89;71.50;99653.81;10386978;28;20471;-66
2021/10/29 05:25:03;;;;;;;441.13;61.35;;;;;;;6.80;71.61;99646.44;10385891;28;20053;-66
2021/10/29 05:30:07;;;;;;;506.02;63.33;;;;;;;6.65;71.99;99634.22;10383906;28;20049;-66
2021/10/29 05:35:10;;;;;;;244.38;46.63;;;;;;;6.56;72.20;99632.88;10385822;28;20077;-66
2021/10/29 05:40:12;;;;;;;651.45;55.55;;;;;;;6.59;71.73;99637.94;10385136;28;20526;-66
2021/10/29 05:45:14;;;;;;;470.52;56.78;;;;;;;6.46;72.11;99636.00;10384937;28;20049;-67
2021/10/29 05:50:15;;;;;;;260.25;51.97;;;;;;;6.44;71.94;99624.84;10384951;28;20057;-66
2021/10/29 05:55:18;;;;;;;230.65;38.72;;;;;;;6.42;71.87;99631.84;10385262;28;20104;-66
2021/10/29 06:00:29;;;;;;;129.73;39.05;;;;;;;6.43;72.22;99636.16;10385481;28;20063;-66
2021/10/29 06:05:32;;;;;;;333.52;50.65;;;;;;;6.22;72.11;99628.44;10384535;28;20139;-67
2021/10/29 06:10:34;;;;;;;223.02;50.50;;;;;;;6.24;72.38;99623.16;10384599;28;20056;-66
2021/10/29 06:15:41;;;;;;;156.95;47.65;;;;;;;6.27;72.52;99625.63;10384904;28;20107;-66
2021/10/29 06:20:43;;;;;;;74.68;39.63;;;;;;;6.39;72.12;99625.03;10382697;28;20453;-66
2021/10/29 06:25:47;;;;;;;155.23;41.90;;;;;;;6.42;71.85;99619.72;10390719;28;20728;-66
2021/10/29 06:30:49;;;;;;;171.07;45.00;;;;;;;6.44;71.90;99630.03;10391143;28;20060;-66
2021/10/29 06:35:54;;;;;;;183.55;41.67;;;;;;;6.53;71.62;99629.59;10391191;28;20136;-66
2021/10/29 06:40:56;;;;;;;272.42;49.78;;;;;;;6.50;71.49;99625.38;10392553;28;20053;-66
2021/10/29 07:44:39;;;;;;;54.00;32.58;;;;;;;7.80;69.12;99618.72;10388405;28;20211;-66
2021/10/29 07:49:40;;;;;;;46.53;32.08;;;;;;;7.92;68.53;99613.69;10388838;28;20063;-67
2021/10/29 07:54:44;;;;;;;53.90;33.15;;;;;;;8.19;68.02;99616.59;10389657;28;20085;-66
2021/10/29 07:59:47;;;;;;;46.65;30.33;;;;;;;8.15;68.04;99611.63;10388106;28;20144;-66
2021/10/29 08:04:50;;;;;;;41.92;28.50;;;;;;;8.23;67.91;99623.31;10376739;28;20505;-66
2021/10/29 08:09:52;;;;;;;40.50;28.33;;;;;;;8.34;67.56;99614.91;10386604;28;20672;-74
2021/10/29 08:14:56;;;;;;;39.75;27.23;;;;;;;8.48;67.51;99617.59;10388609;28;20541;-75
2021/10/29 08:19:57;;;;;;;37.70;27.27;;;;;;;8.74;66.72;99609.13;10387143;28;20504;-74
2021/10/29 08:25:00;;;;;;;36.25;26.77;;;;;;;8.90;66.43;99604.72;10387963;28;20651;-75
2021/10/29 08:30:03;;;;;;;38.45;27.13;;;;;;;9.28;65.87;99607.69;10383914;28;20188;-73
2021/10/29 08:35:07;;;;;;;35.05;25.55;;;;;;;9.57;65.19;99606.75;10374020;28;20064;-74
2021/10/29 08:40:10;;;;;;;32.33;24.33;;;;;;;9.63;64.78;99603.78;10378989;28;20067;-74
2021/10/29 08:45:13;;;;;;;33.28;24.38;;;;;;;9.85;64.31;99603.34;10386467;28;20352;-74
2021/10/29 08:50:17;;;;;;;34.35;23.27;;;;;;;9.95;64.37;99600.03;10386045;28;20048;-74
2021/10/29 08:55:25;;;;;;;35.58;24.17;;;;;;;10.25;64.06;99592.91;10384974;28;20115;-74
2021/10/29 09:00:33;;;;;;;33.55;23.08;;;;;;;10.55;63.44;99587.47;10383969;28;20560;-75
2021/10/29 09:05:47;;;;;;;33.00;22.85;;;;;;;10.78;63.04;99584.19;10385442;28;20053;-75
2021/10/29 09:32:32;;;;;;;23.65;18.55;;;;;;;11.32;61.67;99552.69;10384331;28;20045;-74
2021/10/29 09:38:05;;;;;;;27.27;20.08;;;;;;;11.39;60.95;99552.16;10388152;28;20049;-76
2021/10/29 09:43:14;;;;;;;25.70;20.25;;;;;;;11.60;61.28;99542.78;10383594;28;20504;-79
2021/10/29 09:48:21;;;;;;;26.27;20.30;;;;;;;11.79;60.33;99539.72;10380363;28;20069;-80
2021/10/29 09:58:53;;;;;;;23.13;18.13;;;;;;;12.01;60.03;99532.00;10382499;28;20569;-78
2021/10/29 10:04:03;;;;;;;25.33;18.05;;;;;;;11.88;59.41;99532.06;10380300;28;20053;-77
2021/10/29 10:09:10;;;;;;;23.95;17.80;;;;;;;12.03;59.80;99527.47;10381882;28;20257;-78
2021/10/29 10:14:16;;;;;;;21.10;17.10;;;;;;;12.04;59.69;99516.91;10383400;28;20053;-77
2021/10/29 10:19:24;;;;;;;24.15;17.45;;;;;;;11.72;60.09;99513.09;10382763;28;20528;-77
2021/10/29 10:24:32;;;;;;;21.80;16.45;;;;;;;11.87;60.56;99511.19;10380718;28;20049;-77
2021/10/29 10:51:43;;;;;;;16.25;11.48;;;;;;;12.87;56.00;99475.72;10381195;28;20700;-76
2021/10/29 11:12:47;;;;;;;18.30;11.98;;;;;;;13.01;55.98;99432.66;10389111;28;20421;-75
2021/10/29 11:17:57;;;;;;;16.52;11.95;;;;;;;12.83;55.97;99432.31;10389021;28;20072;-74
2021/10/29 11:23:03;;;;;;;16.42;11.70;;;;;;;12.77;55.31;99431.00;10387152;28;20083;-76
2021/10/29 11:28:10;;;;;;;16.95;12.00;;;;;;;12.47;55.78;99422.84;10389507;28;20052;-76
2021/10/29 11:33:15;;;;;;;16.02;11.38;;;;;;;12.46;56.42;99418.53;10386941;28;20049;-76
2021/10/29 11:38:17;;;;;;;17.38;12.23;;;;;;;12.50;56.61;99409.47;10388014;28;20057;-76
2021/10/29 11:43:25;;;;;;;18.38;10.98;;;;;;;12.81;55.27;99407.97;10389636;28;20132;-75
2021/10/29 11:48:27;;;;;;;18.67;11.93;;;;;;;12.96;55.52;99393.66;10388947;28;20093;-76
2021/10/29 11:53:29;;;;;;;15.02;10.75;;;;;;;13.03;54.92;99389.59;10387295;28;20686;-77
2021/10/29 11:58:57;;;;;;;15.10;10.77;;;;;;;13.08;54.97;99376.13;10388265;28;20049;-75
2021/10/29 12:09:29;;;;;;;23.83;11.13;;;;;;;13.13;55.22;99355.59;10388506;28;20349;-76
2021/10/29 12:14:33;;;;;;;15.15;11.05;;;;;;;13.22;54.48;99350.44;10385498;28;21022;-77
2021/10/29 12:19:41;;;;;;;14.63;10.73;;;;;;;13.28;54.30;99328.94;10387614;28;20049;-76
2021/10/29 12:24:49;;;;;;;14.00;10.25;;;;;;;13.46;54.47;99313.50;10386185;28;20060;-78
2021/10/29 12:30:05;;;;;;;16.65;10.50;;;;;;;13.52;54.32;99310.38;10386489;28;20050;-76
2021/10/29 13:02:03;;;;;;;24.88;17.48;;;;;;;13.71;53.73;99273.78;10383691;28;20071;-76
2021/10/29 13:07:06;;;;;;;24.15;17.40;;;;;;;13.67;53.65;99273.19;10382082;28;20788;-77
2021/10/29 13:12:17;;;;;;;25.65;17.65;;;;;;;13.86;53.86;99264.59;10384373;28;20188;-76
2021/10/29 13:17:26;;;;;;;23.17;16.90;;;;;;;14.20;52.84;99270.50;10386516;28;20497;-77
2021/10/29 13:28:20;;;;;;;24.83;16.13;;;;;;;14.66;52.27;99248.97;10399113;28;20060;-76
2021/10/29 13:54:55;;;;;;;12.45;8.15;;;;;;;14.94;51.01;99237.69;10384416;28;20072;-76
2021/10/29 14:42:41;;;;;;;;;;;;;;;12.62;52.67;99224.91;10382953;28;20767;-76
2021/10/29 15:45:38;;;;;;;;;;;;;;;12.14;54.31;99244.44;10388990;28;20251;-76
2021/10/29 15:50:40;;;;;;;18.88;11.82;;;;;;;12.13;54.45;99248.00;10387717;28;20008;-76
2021/10/29 15:55:50;;;;;;;15.85;11.23;;;;;;;11.82;54.91;99243.44;10389285;28;20045;-76
2021/10/29 16:01:39;;;;;;;17.42;12.13;;;;;;;11.72;55.09;99235.44;10389026;28;20059;-76
2021/10/29 16:17:12;;;;;;;19.45;13.45;;;;;;;10.93;56.66;99227.34;10387983;28;20753;-75
2021/10/29 16:22:28;;;;;;;23.15;14.23;;;;;;;10.67;57.87;99236.25;10387383;28;20514;-76
2021/10/29 16:38:10;;;;;;;25.88;16.45;;;;;;;10.06;59.13;99244.91;10386288;28;20409;-75
2021/10/29 16:43:12;;;;;;;23.67;15.85;;;;;;;9.96;58.97;99227.34;10385619;28;20049;-75
2021/10/29 16:48:16;;;;;;;25.08;16.40;;;;;;;9.84;59.97;99236.88;10385631;28;20124;-76
2021/10/29 16:53:19;;;;;;;28.70;18.10;;;;;;;9.65;59.95;99252.91;10385971;28;20045;-78
2021/10/29 16:58:21;;;;;;;29.10;18.80;;;;;;;9.52;60.28;99249.41;10386208;28;20045;-79
2021/10/29 17:03:24;;;;;;;33.38;19.90;;;;;;;9.50;60.45;99246.06;10386186;28;20053;-76
2021/10/29 17:08:26;;;;;;;31.02;19.45;;;;;;;9.49;60.38;99244.41;10384176;28;20156;-76
2021/10/29 17:13:28;;;;;;;29.90;19.70;;;;;;;9.46;60.27;99225.50;10386688;28;20049;-77
2021/10/29 17:18:30;;;;;;;31.13;19.85;;;;;;;9.35;60.77;99231.44;10386091;28;20575;-77
2021/10/29 17:23:31;;;;;;;26.67;18.50;;;;;;;9.27;61.24;99232.88;10384717;28;20053;-77
2021/10/29 17:28:33;;;;;;;29.02;18.58;;;;;;;9.19;61.61;99235.97;10385703;28;20076;-77
2021/10/29 17:33:35;;;;;;;28.48;18.35;;;;;;;9.09;61.87;99244.50;10384751;28;20045;-77
2021/10/29 17:38:37;;;;;;;32.53;18.55;;;;;;;8.99;62.46;99257.31;10383012;28;20127;-76
2021/10/29 17:43:39;;;;;;;27.98;18.88;;;;;;;9.00;62.46;99260.72;10384425;28;20053;-78
2021/10/29 17:48:41;;;;;;;29.45;19.45;;;;;;;8.91;62.65;99256.97;10386248;28;20136;-78
2021/10/29 17:53:43;;;;;;;31.52;20.35;;;;;;;8.82;62.55;99267.94;10383518;28;20092;-79
2021/10/29 17:58:44;;;;;;;32.40;20.33;;;;;;;8.78;62.75;99253.44;10385840;28;20060;-79
2021/10/29 18:03:46;;;;;;;27.40;18.45;;;;;;;8.75;63.25;99258.84;10384579;28;20490;-79
2021/10/29 18:09:03;;;;;;;30.38;19.35;;;;;;;8.74;63.04;99271.06;10381711;28;20049;-78
2021/10/29 18:14:05;;;;;;;30.67;19.83;;;;;;;8.64;63.30;99272.56;10382275;28;20056;-78
2021/10/29 18:19:10;;;;;;;34.03;21.58;;;;;;;8.65;63.55;99260.34;10387383;28;20055;-78
2021/10/29 18:24:14;;;;;;;31.55;20.38;;;;;;;8.60;63.83;99278.06;10387642;28;20482;-77
2021/10/29 18:29:16;;;;;;;30.58;20.08;;;;;;;8.52;63.72;99277.69;10387119;28;20061;-78
2021/10/29 18:34:18;;;;;;;29.38;19.75;;;;;;;8.52;63.84;99281.13;10391679;28;20531;-78
2021/10/29 18:39:20;;;;;;;29.80;20.42;;;;;;;8.53;63.77;99293.22;10389672;28;20472;-77
2021/10/29 18:44:22;;;;;;;29.67;19.58;;;;;;;8.56;63.84;99302.63;10389931;28;20545;-78
2021/10/29 18:49:23;;;;;;;31.17;19.08;;;;;;;8.49;64.10;99298.72;10388024;28;20794;-77
2021/10/29 18:54:26;;;;;;;30.55;20.20;;;;;;;8.53;64.03;99305.41;10388739;28;20053;-77
2021/10/29 18:59:27;;;;;;;32.30;20.70;;;;;;;8.53;63.78;99308.00;10388588;28;20528;-77
2021/10/29 19:04:29;;;;;;;32.35;19.88;;;;;;;8.42;64.06;99320.88;10389129;28;20059;-79
2021/10/29 19:09:32;;;;;;;29.27;18.55;;;;;;;8.27;64.41;99324.38;10387858;28;20037;-77
2021/10/29 19:14:34;;;;;;;30.83;19.45;;;;;;;8.10;64.57;99332.34;10386913;28;20413;-79
2021/10/29 19:19:36;;;;;;;29.25;18.67;;;;;;;8.08;64.69;99329.81;10388196;28;20038;-77
2021/10/29 19:24:38;;;;;;;31.67;19.13;;;;;;;7.98;65.00;99329.53;10389592;28;20536;-79
2021/10/29 19:29:40;;;;;;;37.45;21.70;;;;;;;7.99;65.04;99336.44;10381790;28;20054;-78
2021/10/29 19:34:48;;;;;;;29.52;18.45;;;;;;;7.91;65.40;99350.81;10388567;28;20064;-78
2021/10/29 19:39:52;;;;;;;31.02;19.23;;;;;;;7.93;65.47;99339.41;10388571;28;20520;-79
2021/10/29 19:44:54;;;;;;;29.60;17.48;;;;;;;7.94;65.44;99335.00;10388548;28;20427;-79
2021/10/29 19:49:56;;;;;;;33.20;17.83;;;;;;;7.86;65.45;99324.19;10385716;28;20050;-78
2021/10/29 19:55:00;;;;;;;29.70;19.10;;;;;;;7.70;65.29;99321.66;10389414;28;20064;-79
2021/10/29 20:00:05;;;;;;;28.65;18.85;;;;;;;7.53;66.00;99326.16;10385449;28;20739;-77
2021/10/29 20:05:07;;;;;;;28.63;18.25;;;;;;;7.49;66.15;99324.66;10384580;28;20596;-77
2021/10/29 20:10:09;;;;;;;28.92;18.52;;;;;;;7.39;66.55;99328.66;10385446;28;20041;-76
2021/10/29 20:15:11;;;;;;;28.63;18.27;;;;;;;7.37;66.11;99333.97;10383876;28;20111;-77
2021/10/29 20:20:14;;;;;;;32.25;19.65;;;;;;;7.31;66.11;99325.66;10386806;28;20155;-77
2021/10/29 20:25:16;;;;;;;32.58;20.17;;;;;;;7.26;66.29;99322.50;10386877;28;20072;-77
2021/10/29 20:30:18;;;;;;;30.00;18.10;;;;;;;7.36;66.42;99334.91;10387796;28;20056;-77
2021/10/29 20:35:20;;;;;;;28.02;18.38;;;;;;;7.39;66.44;99324.31;10386928;28;20049;-76
2021/10/29 20:40:31;;;;;;;33.58;18.80;;;;;;;7.37;66.50;99320.97;10387160;28;20056;-78
2021/10/29 20:45:33;;;;;;;25.58;18.40;;;;;;;7.42;66.81;99331.97;10383622;28;20054;-78
2021/10/29 20:50:35;;;;;;;28.13;20.30;;;;;;;7.55;66.62;99338.13;10378275;28;20149;-77
2021/10/29 20:55:36;;;;;;;34.35;23.35;;;;;;;7.58;66.45;99342.34;10385517;28;20704;-75
2021/10/29 21:00:38;;;;;;;32.75;20.83;;;;;;;7.62;66.58;99344.69;10385054;28;20056;-75
2021/10/29 21:05:41;;;;;;;28.75;20.25;;;;;;;7.65;66.41;99354.91;10385841;28;20488;-76
2021/10/29 21:10:43;;;;;;;30.88;19.77;;;;;;;7.72;66.26;99353.63;10384252;28;20085;-76
2021/10/29 21:15:44;;;;;;;28.90;18.63;;;;;;;7.74;66.46;99356.16;10386810;28;20059;-74
2021/10/29 21:20:46;;;;;;;31.10;20.08;;;;;;;7.66;66.59;99343.56;10385443;28;20103;-76
2021/10/29 21:25:58;;;;;;;31.48;20.33;;;;;;;7.63;66.81;99343.75;10386079;28;20353;-76
2021/10/29 21:31:00;;;;;;;29.63;20.05;;;;;;;7.69;66.73;99350.38;10385324;28;20512;-75
2021/10/29 21:36:04;;;;;;;36.55;20.60;;;;;;;7.73;66.64;99354.47;10383460;28;20081;-74
2021/10/29 21:41:07;;;;;;;32.67;20.20;;;;;;;7.70;66.64;99354.66;10382147;28;20550;-74
2021/10/29 21:46:10;;;;;;;31.30;20.05;;;;;;;7.69;66.64;99348.59;10381418;28;20057;-76
2021/10/29 21:51:12;;;;;;;32.50;21.17;;;;;;;7.64;66.79;99349.78;10382520;28;20058;-77
2021/10/29 21:56:13;;;;;;;27.80;19.13;;;;;;;7.56;66.79;99338.97;10382403;28;20077;-75
2021/10/29 22:01:16;;;;;;;31.27;20.17;;;;;;;7.48;66.95;99342.03;10380607;28;20056;-67
2021/10/29 22:06:18;;;;;;;30.48;21.27;;;;;;;7.49;66.98;99337.66;10367081;28;20061;-67
2021/10/29 22:11:21;;;;;;;34.35;20.30;;;;;;;7.50;66.98;99334.97;10377390;28;20049;-67
2021/10/29 22:16:23;;;;;;;32.22;22.13;;;;;;;7.40;67.09;99320.81;10382433;28;20057;-66
2021/10/29 22:21:26;;;;;;;30.77;21.13;;;;;;;7.40;67.07;99317.34;10380562;28;20045;-66
2021/10/29 22:26:33;;;;;;;38.70;23.65;;;;;;;7.29;67.32;99322.31;10384195;28;20090;-66
2021/10/29 22:31:35;;;;;;;31.30;20.83;;;;;;;7.18;67.48;99317.72;10384985;28;20053;-67
2021/10/29 22:36:37;;;;;;;30.33;20.98;;;;;;;7.13;67.69;99319.72;10383149;28;20099;-67
2021/10/29 22:41:39;;;;;;;32.35;19.02;;;;;;;7.03;67.75;99314.22;10384561;28;20141;-66
2021/10/29 22:46:40;;;;;;;34.20;22.25;;;;;;;6.93;67.97;99314.78;10382139;28;20067;-66
2021/10/29 22:51:42;;;;;;;34.55;22.05;;;;;;;6.93;67.96;99313.03;10383201;28;20414;-66
2021/10/29 22:56:44;;;;;;;36.40;22.90;;;;;;;6.85;68.09;99310.03;10383619;28;20049;-66
2021/10/29 23:01:48;;;;;;;39.70;23.52;;;;;;;6.80;68.08;99312.00;10381619;28;20421;-66
2021/10/29 23:06:50;;;;;;;44.17;25.08;;;;;;;6.78;68.03;99300.03;10386731;28;20077;-67
2021/10/29 23:11:52;;;;;;;31.90;21.05;;;;;;;6.77;68.31;99295.75;10390157;28;20128;-66
2021/10/29 23:16:54;;;;;;;42.67;23.42;;;;;;;6.70;68.49;99294.41;10390468;28;20305;-66
2021/10/29 23:21:56;;;;;;;36.15;22.30;;;;;;;6.74;68.21;99291.56;10390518;28;20049;-66
2021/10/29 23:26:57;;;;;;;44.78;25.38;;;;;;;6.60;68.31;99301.00;10388993;28;20049;-66
2021/10/29 23:31:59;;;;;;;38.75;22.40;;;;;;;6.48;68.54;99312.06;10389435;28;20563;-66
2021/10/29 23:37:01;;;;;;;37.85;22.75;;;;;;;6.49;68.65;99303.38;10389153;28;20490;-67
2021/10/29 23:42:03;;;;;;;31.83;20.48;;;;;;;6.54;68.50;99306.53;10388312;28;20045;-66
2021/10/29 23:47:05;;;;;;;30.08;20.00;;;;;;;6.59;68.31;99301.94;10387194;28;20084;-66
2021/10/29 23:52:07;;;;;;;35.97;22.33;;;;;;;6.59;68.09;99301.94;10389304;28;20132;-66
2021/10/29 23:57:10;;;;;;;36.80;22.70;;;;;;;6.49;67.70;99291.19;10388160;28;20081;-66
